Time;durP1;ratioP1;P1;durP2;ratioP2;P2;SDS_P1;SDS_P2;PMS_P1;PMS_P2;Temp;Humidity;BMP_temperature;BMP_pressure;BME280_temperature;BME280_humidity;BME280_pressure;Samples;Min_cycle;Max_cycle;Signal;HPM_P1;HPM_P2
2023/08/28 00:01:44;;;;;;;7.33;3.87;;;16.80;37.80;;;;;;5001760;28;20460;-69
2023/08/28 00:04:11;;;;;;;6.33;3.23;;;16.80;37.70;;;;;;5007356;28;20487;-69
2023/08/28 00:06:38;;;;;;;8.60;3.80;;;16.80;37.80;;;;;;5001813;28;20483;-69
2023/08/28 00:09:07;;;;;;;8.10;3.90;;;16.80;37.80;;;;;;5004188;28;20476;-69
2023/08/28 00:11:34;;;;;;;10.67;3.57;;;16.80;37.90;;;;;;5006571;28;20539;-69
2023/08/28 00:14:01;;;;;;;7.77;3.60;;;16.80;37.80;;;;;;5007762;28;20483;-69
2023/08/28 00:16:27;;;;;;;5.63;3.50;;;16.80;37.80;;;;;;5006011;28;20453;-69
2023/08/28 00:18:54;;;;;;;8.00;3.40;;;16.80;37.80;;;;;;5007903;28;20463;-69
2023/08/28 00:21:21;;;;;;;7.20;4.17;;;16.80;37.80;;;;;;5007408;28;20468;-69
2023/08/28 00:23:48;;;;;;;6.07;3.87;;;16.80;37.80;;;;;;5008247;28;20562;-69
2023/08/28 00:26:16;;;;;;;6.93;3.90;;;16.90;37.90;;;;;;5010352;28;20490;-69
2023/08/28 00:28:42;;;;;;;7.10;4.20;;;16.80;37.70;;;;;;5006141;28;20478;-69
2023/08/28 00:31:09;;;;;;;6.63;4.00;;;16.80;37.80;;;;;;5009052;28;20505;-69
2023/08/28 00:33:36;;;;;;;6.33;3.80;;;16.80;37.80;;;;;;5010665;28;20491;-69
2023/08/28 00:36:02;;;;;;;7.97;4.47;;;16.70;37.80;;;;;;5005410;28;20487;-69
2023/08/28 00:38:29;;;;;;;7.47;4.20;;;16.70;37.90;;;;;;5007840;28;20867;-69
2023/08/28 00:40:56;;;;;;;7.30;4.40;;;16.70;37.90;;;;;;5005263;28;20463;-69
2023/08/28 00:43:24;;;;;;;7.37;4.40;;;16.70;37.90;;;;;;5010270;28;20484;-69
2023/08/28 00:45:51;;;;;;;6.67;4.50;;;16.70;37.90;;;;;;5004505;28;21207;-69
2023/08/28 00:48:20;;;;;;;9.50;4.53;;;16.70;37.90;;;;;;5010443;28;21147;-69
2023/08/28 00:50:48;;;;;;;8.43;4.40;;;16.70;38.00;;;;;;5003580;28;20475;-69
2023/08/28 00:53:14;;;;;;;8.57;4.50;;;16.70;38.10;;;;;;5010193;28;20518;-69
2023/08/28 00:55:42;;;;;;;7.93;4.10;;;16.70;38.10;;;;;;5009377;28;20460;-69
2023/08/28 00:58:09;;;;;;;9.10;4.17;;;16.70;38.10;;;;;;5009308;28;21034;-69
2023/08/28 01:00:37;;;;;;;8.57;4.83;;;16.70;38.20;;;;;;5010219;28;20979;-69
2023/08/28 01:03:05;;;;;;;18.30;5.37;;;16.70;38.20;;;;;;5007050;28;20479;-69
2023/08/28 01:05:42;;;;;;;6.07;4.30;;;16.70;38.20;;;;;;5009269;28;20543;-69
2023/08/28 01:08:15;;;;;;;8.80;3.83;;;16.60;38.30;;;;;;5009576;28;20471;-69
2023/08/28 01:10:49;;;;;;;6.80;4.70;;;16.60;38.30;;;;;;5013502;23;21035;-64
2023/08/28 01:13:22;;;;;;;8.03;4.73;;;16.70;38.40;;;;;;5008815;28;20491;-64
2023/08/28 01:15:50;;;;;;;7.13;4.07;;;16.70;38.40;;;;;;5004547;28;20472;-65
2023/08/28 01:18:18;;;;;;;10.67;4.60;;;16.70;38.40;;;;;;5008154;28;20471;-64
2023/08/28 01:20:47;;;;;;;8.13;4.70;;;16.70;38.40;;;;;;5007038;28;20469;-64
2023/08/28 01:23:22;;;;;;;7.40;4.40;;;16.70;38.50;;;;;;5006910;28;20994;-65
2023/08/28 01:25:53;;;;;;;8.50;5.40;;;16.70;38.60;;;;;;5004759;28;20936;-64
2023/08/28 01:28:21;;;;;;;8.90;4.80;;;16.70;38.60;;;;;;5008867;28;20462;-64
2023/08/28 01:30:51;;;;;;;7.53;4.37;;;16.70;38.70;;;;;;5008020;28;20468;-64
2023/08/28 01:33:18;;;;;;;7.10;5.33;;;16.60;38.70;;;;;;5007607;28;20538;-64
2023/08/28 01:35:48;;;;;;;7.93;4.73;;;16.70;38.70;;;;;;5006492;28;20789;-64
2023/08/28 01:38:24;;;;;;;8.67;5.43;;;16.70;38.70;;;;;;5008085;28;20459;-64
2023/08/28 01:40:58;;;;;;;11.13;5.20;;;16.70;38.80;;;;;;5007037;28;21068;-65
2023/08/28 01:43:28;;;;;;;6.90;4.67;;;16.70;38.80;;;;;;5008689;28;20480;-64
2023/08/28 01:45:56;;;;;;;9.53;5.57;;;16.70;38.70;;;;;;5004823;28;20459;-64
2023/08/28 01:48:23;;;;;;;8.03;5.17;;;16.70;39.00;;;;;;5007275;28;20494;-65
2023/08/28 01:50:50;;;;;;;9.30;5.73;;;16.70;38.80;;;;;;5008797;28;20940;-64
2023/08/28 01:53:16;;;;;;;8.30;4.90;;;16.70;38.80;;;;;;5001365;28;20485;-64
2023/08/28 01:56:23;;;;;;;10.07;5.40;;;16.70;38.80;;;;;;5007950;28;20465;-64
2023/08/28 01:58:54;;;;;;;8.40;5.80;;;16.70;39.00;;;;;;5004851;28;20614;-65
2023/08/28 02:01:21;;;;;;;8.43;5.20;;;16.70;38.70;;;;;;5008455;28;20537;-64
2023/08/28 02:03:48;;;;;;;7.30;4.70;;;16.70;38.80;;;;;;5008887;28;20485;-64
2023/08/28 02:06:16;;;;;;;8.33;6.17;;;16.70;38.90;;;;;;5007822;28;20484;-65
2023/08/28 02:08:42;;;;;;;10.40;5.70;;;16.70;39.00;;;;;;5006005;28;20841;-64
2023/08/28 02:11:09;;;;;;;7.93;5.27;;;16.70;39.00;;;;;;5008360;28;20526;-64
2023/08/28 02:13:36;;;;;;;10.60;6.27;;;16.70;39.00;;;;;;5006339;28;20499;-64
2023/08/28 02:16:05;;;;;;;11.53;5.17;;;16.70;38.90;;;;;;5004905;28;20487;-64
2023/08/28 02:18:32;;;;;;;9.47;5.30;;;16.70;39.00;;;;;;5004102;28;20467;-64
2023/08/28 02:20:58;;;;;;;9.97;4.77;;;16.70;38.90;;;;;;5007977;28;20452;-64
2023/08/28 02:23:26;;;;;;;6.27;4.37;;;16.70;39.00;;;;;;5002834;28;20484;-64
2023/08/28 02:25:53;;;;;;;10.90;5.07;;;16.70;39.00;;;;;;5007097;28;20960;-65
2023/08/28 02:28:20;;;;;;;8.90;5.60;;;16.60;39.00;;;;;;5004055;28;20464;-64
2023/08/28 02:30:47;;;;;;;8.70;5.57;;;16.70;39.10;;;;;;5004050;28;20844;-64
2023/08/28 02:33:16;;;;;;;22.80;5.53;;;16.60;39.20;;;;;;5007496;28;20484;-64
2023/08/28 02:35:42;;;;;;;11.97;5.30;;;16.60;39.20;;;;;;5008263;28;20471;-65
2023/08/28 02:38:10;;;;;;;9.03;5.83;;;16.60;39.30;;;;;;5002809;28;20456;-64
2023/08/28 02:40:37;;;;;;;27.73;6.07;;;16.60;39.30;;;;;;5005666;28;20471;-64
2023/08/28 02:43:06;;;;;;;8.70;5.30;;;16.50;39.40;;;;;;5005457;28;20564;-65
2023/08/28 02:45:34;;;;;;;15.80;5.47;;;16.50;39.40;;;;;;5010753;28;20948;-64
2023/08/28 02:48:01;;;;;;;8.10;6.03;;;16.50;39.50;;;;;;5008326;28;20530;-63
2023/08/28 02:50:29;;;;;;;7.47;5.23;;;16.50;39.50;;;;;;5004382;28;20922;-65
2023/08/28 02:52:56;;;;;;;7.60;4.73;;;16.50;39.50;;;;;;5001173;28;20863;-65
2023/08/28 02:55:23;;;;;;;11.60;5.47;;;16.50;39.60;;;;;;5008974;28;20463;-66
2023/08/28 02:57:50;;;;;;;7.97;5.93;;;16.50;39.60;;;;;;5004129;28;20456;-65
2023/08/28 03:00:18;;;;;;;10.23;5.93;;;16.50;39.60;;;;;;5011261;28;20459;-65
2023/08/28 03:02:45;;;;;;;7.80;5.77;;;16.50;39.70;;;;;;5002890;28;20460;-65
2023/08/28 03:05:12;;;;;;;8.97;6.20;;;16.50;39.60;;;;;;5006427;28;20988;-65
2023/08/28 03:07:40;;;;;;;10.43;6.40;;;16.50;39.60;;;;;;5007931;28;21063;-65
2023/08/28 03:10:08;;;;;;;7.70;6.10;;;16.50;39.60;;;;;;5009294;28;20464;-65
2023/08/28 03:12:35;;;;;;;7.93;6.10;;;16.50;39.50;;;;;;5002947;28;20459;-65
2023/08/28 03:15:02;;;;;;;8.20;5.80;;;16.50;39.40;;;;;;5003387;28;20460;-65
2023/08/28 03:17:28;;;;;;;10.73;6.20;;;16.50;39.50;;;;;;5004176;28;20577;-65
2023/08/28 03:19:55;;;;;;;8.67;6.37;;;16.50;39.40;;;;;;5004541;28;20475;-64
2023/08/28 03:22:22;;;;;;;11.70;6.77;;;16.50;39.50;;;;;;5007858;28;20463;-65
2023/08/28 03:24:52;;;;;;;9.80;6.23;;;16.50;39.50;;;;;;5003007;28;20487;-65
2023/08/28 03:27:19;;;;;;;9.70;6.00;;;16.50;39.60;;;;;;5007293;28;20491;-65
2023/08/28 03:29:45;;;;;;;8.63;6.00;;;16.40;39.60;;;;;;5007855;28;20475;-65
2023/08/28 03:32:12;;;;;;;9.17;5.73;;;16.40;39.70;;;;;;5005887;28;20476;-65
2023/08/28 03:34:39;;;;;;;8.60;5.37;;;16.40;39.70;;;;;;5004836;28;20486;-64
2023/08/28 03:37:05;;;;;;;8.83;5.50;;;16.40;39.80;;;;;;5006452;28;20539;-64
2023/08/28 03:39:32;;;;;;;7.83;5.60;;;16.40;39.80;;;;;;5004685;28;20490;-64
2023/08/28 03:42:00;;;;;;;10.60;5.90;;;16.30;39.90;;;;;;5006156;28;20551;-65
2023/08/28 03:44:27;;;;;;;8.57;5.90;;;16.30;40.00;;;;;;5008070;28;20509;-65
2023/08/28 03:46:53;;;;;;;10.07;5.77;;;16.30;39.90;;;;;;5005456;28;20487;-65
2023/08/28 03:49:20;;;;;;;9.80;5.73;;;16.30;39.90;;;;;;5010020;28;20932;-65
2023/08/28 03:51:47;;;;;;;8.50;5.17;;;16.30;39.90;;;;;;5007522;28;20471;-65
2023/08/28 03:54:14;;;;;;;8.00;6.00;;;16.30;39.90;;;;;;5003835;28;21378;-65
2023/08/28 03:56:40;;;;;;;8.60;5.50;;;16.30;39.90;;;;;;5007558;28;20459;-65
2023/08/28 03:59:08;;;;;;;9.33;5.80;;;16.30;39.80;;;;;;5011497;28;20460;-65
2023/08/28 04:01:35;;;;;;;9.20;6.30;;;16.30;39.80;;;;;;5007868;28;20502;-65
2023/08/28 04:04:02;;;;;;;8.40;6.50;;;16.30;39.70;;;;;;5006140;28;20480;-65
2023/08/28 04:06:28;;;;;;;9.60;5.67;;;16.40;39.80;;;;;;5007549;28;20459;-65
2023/08/28 04:08:55;;;;;;;8.20;5.77;;;16.40;39.70;;;;;;5008581;28;21075;-63
2023/08/28 04:11:22;;;;;;;8.10;6.07;;;16.40;39.70;;;;;;5008347;28;20453;-64
2023/08/28 04:13:48;;;;;;;13.00;6.17;;;16.40;39.50;;;;;;5008946;28;20483;-64
2023/08/28 04:16:18;;;;;;;7.60;5.20;;;16.40;39.50;;;;;;5005788;28;20464;-64
2023/08/28 04:18:45;;;;;;;9.83;5.73;;;16.40;39.30;;;;;;5007779;28;20550;-63
2023/08/28 04:21:11;;;;;;;10.80;6.33;;;16.40;39.30;;;;;;5010812;28;20463;-64
2023/08/28 04:23:38;;;;;;;8.53;6.27;;;16.40;39.00;;;;;;5010234;28;20515;-65
2023/08/28 04:26:05;;;;;;;9.53;6.47;;;16.40;38.90;;;;;;5008459;28;20492;-63
2023/08/28 04:28:31;;;;;;;11.13;6.67;;;16.50;38.70;;;;;;5005933;28;20475;-64
2023/08/28 04:30:58;;;;;;;8.30;5.80;;;16.50;38.40;;;;;;5005322;28;20476;-63
2023/08/28 04:33:27;;;;;;;7.43;5.60;;;16.50;38.30;;;;;;5007318;28;20827;-63
2023/08/28 04:35:53;;;;;;;9.03;6.27;;;16.40;38.20;;;;;;5009923;28;20464;-64
2023/08/28 04:38:20;;;;;;;10.33;5.70;;;16.40;38.00;;;;;;5003739;28;20960;-64
2023/08/28 04:40:47;;;;;;;8.80;5.70;;;16.40;38.00;;;;;;5005886;28;20811;-64
2023/08/28 04:43:13;;;;;;;6.47;4.10;;;16.40;37.70;;;;;;5009222;28;20482;-64
2023/08/28 04:45:40;;;;;;;5.27;3.10;;;16.40;37.00;;;;;;5008662;28;20991;-64
2023/08/28 04:48:07;;;;;;;5.50;3.13;;;16.40;35.80;;;;;;5006389;28;20487;-64
2023/08/28 04:50:35;;;;;;;8.70;3.60;;;16.40;35.50;;;;;;5010395;28;20464;-64
2023/08/28 04:53:02;;;;;;;6.17;4.33;;;16.40;35.60;;;;;;5004447;28;20523;-64
2023/08/28 04:55:30;;;;;;;6.63;4.27;;;16.30;35.60;;;;;;5011256;28;20460;-63
2023/08/28 04:57:56;;;;;;;8.90;4.87;;;16.30;35.80;;;;;;5007196;28;20462;-63
2023/08/28 05:00:23;;;;;;;6.00;3.90;;;16.20;35.90;;;;;;5005808;28;20478;-64
2023/08/28 05:02:50;;;;;;;6.57;4.40;;;16.20;36.10;;;;;;5005217;28;20468;-63
2023/08/28 05:05:16;;;;;;;7.37;4.23;;;16.20;36.10;;;;;;5009553;28;20482;-64
2023/08/28 05:07:44;;;;;;;7.00;3.73;;;16.20;36.20;;;;;;5006397;28;20480;-65
2023/08/28 05:10:11;;;;;;;6.07;3.67;;;16.20;36.10;;;;;;5008047;28;20967;-64
2023/08/28 05:12:38;;;;;;;6.17;3.80;;;16.20;36.20;;;;;;5006400;28;20460;-64
2023/08/28 05:15:05;;;;;;;6.67;4.20;;;16.20;36.30;;;;;;5009989;28;20834;-63
2023/08/28 05:17:32;;;;;;;5.60;3.60;;;16.20;36.30;;;;;;5008402;28;20471;-64
2023/08/28 05:19:59;;;;;;;7.30;4.00;;;16.20;36.50;;;;;;5006852;28;20463;-64
2023/08/28 05:22:25;;;;;;;7.00;4.53;;;16.10;36.70;;;;;;5008636;28;20941;-64
2023/08/28 05:24:54;;;;;;;8.47;4.70;;;16.20;36.80;;;;;;5007983;28;20482;-63
2023/08/28 05:27:20;;;;;;;8.20;4.90;;;16.10;36.80;;;;;;5009250;28;20484;-63
2023/08/28 05:29:48;;;;;;;9.17;5.23;;;16.20;36.80;;;;;;5003665;28;20475;-63
2023/08/28 05:32:14;;;;;;;8.60;5.60;;;16.20;36.90;;;;;;5008955;28;20464;-63
2023/08/28 05:34:41;;;;;;;6.93;5.10;;;16.10;37.10;;;;;;5008532;28;20476;-64
2023/08/28 05:37:08;;;;;;;7.87;5.00;;;16.20;37.10;;;;;;5006192;28;20514;-64
2023/08/28 05:39:34;;;;;;;9.90;5.60;;;16.20;37.10;;;;;;5010623;28;20460;-64
2023/08/28 05:42:02;;;;;;;8.20;4.63;;;16.20;36.90;;;;;;5007232;28;20460;-65
2023/08/28 05:44:31;;;;;;;6.50;3.77;;;16.20;37.00;;;;;;5006711;28;20974;-65
2023/08/28 05:47:00;;;;;;;6.50;3.70;;;16.10;36.90;;;;;;5009159;28;20474;-64
2023/08/28 05:49:27;;;;;;;5.93;3.77;;;16.20;36.80;;;;;;5006022;28;21078;-65
2023/08/28 05:51:54;;;;;;;6.20;3.73;;;16.20;36.80;;;;;;5005482;28;20555;-64
2023/08/28 05:54:20;;;;;;;6.40;3.60;;;16.20;36.80;;;;;;5003489;28;20488;-64
2023/08/28 05:56:47;;;;;;;6.40;4.07;;;16.10;36.80;;;;;;5013059;28;20467;-64
2023/08/28 05:59:15;;;;;;;6.17;4.10;;;16.20;36.70;;;;;;5007098;28;20464;-64
2023/08/28 06:01:42;;;;;;;8.37;4.57;;;16.20;36.60;;;;;;5009555;28;20468;-64
2023/08/28 06:04:09;;;;;;;7.27;4.13;;;16.10;36.80;;;;;;5006951;28;20491;-65
2023/08/28 06:06:37;;;;;;;7.07;4.17;;;16.20;36.80;;;;;;5009681;28;20466;-64
2023/08/28 06:09:04;;;;;;;7.30;4.43;;;16.20;36.80;;;;;;5008597;28;20480;-65
2023/08/28 06:11:32;;;;;;;5.80;4.10;;;16.10;36.80;;;;;;5008190;28;20460;-64
2023/08/28 06:13:59;;;;;;;6.57;4.17;;;16.20;36.80;;;;;;5007626;28;20478;-64
2023/08/28 06:16:27;;;;;;;6.73;4.50;;;16.20;36.80;;;;;;5006862;28;20471;-64
2023/08/28 06:18:54;;;;;;;9.70;4.30;;;16.20;37.00;;;;;;5009112;28;20467;-64
2023/08/28 06:21:21;;;;;;;7.43;4.20;;;16.20;36.60;;;;;;5007913;28;20470;-65
2023/08/28 06:23:48;;;;;;;6.97;4.07;;;16.30;36.60;;;;;;5009096;28;20483;-64
2023/08/28 06:26:14;;;;;;;6.83;3.77;;;16.20;36.70;;;;;;5006936;28;20464;-64
2023/08/28 06:28:41;;;;;;;8.83;4.23;;;16.20;36.80;;;;;;5009133;28;20476;-64
2023/08/28 06:31:08;;;;;;;6.80;4.50;;;16.20;36.70;;;;;;5008352;28;20490;-65
2023/08/28 06:33:36;;;;;;;8.40;4.63;;;16.30;36.80;;;;;;5011074;28;20474;-63
2023/08/28 06:36:03;;;;;;;7.10;5.30;;;16.20;36.70;;;;;;5008108;28;20987;-64
2023/08/28 06:38:30;;;;;;;7.13;4.60;;;16.30;36.80;;;;;;5010541;28;20498;-64
2023/08/28 06:40:56;;;;;;;5.70;3.80;;;16.30;36.80;;;;;;5006944;28;20474;-64
2023/08/28 06:43:23;;;;;;;6.10;4.47;;;16.30;36.70;;;;;;5006450;28;20488;-64
2023/08/28 06:45:50;;;;;;;10.67;4.50;;;16.30;36.70;;;;;;5008621;28;20467;-64
2023/08/28 06:48:17;;;;;;;7.60;4.63;;;16.30;36.70;;;;;;5000859;28;20853;-64
2023/08/28 06:50:45;;;;;;;9.60;5.03;;;16.30;36.80;;;;;;5006155;28;20470;-63
2023/08/28 06:53:12;;;;;;;6.87;4.37;;;16.30;36.80;;;;;;5008607;28;20503;-64
2023/08/28 06:55:38;;;;;;;9.23;5.73;;;16.30;36.80;;;;;;5002173;28;20961;-64
2023/08/28 06:58:05;;;;;;;7.87;4.73;;;16.30;36.70;;;;;;5002212;28;20468;-64
2023/08/28 07:00:32;;;;;;;7.13;4.87;;;16.30;36.70;;;;;;5003418;28;22060;-64
2023/08/28 07:02:59;;;;;;;7.73;5.33;;;16.30;36.70;;;;;;5009713;28;20480;-64
2023/08/28 07:05:26;;;;;;;7.53;5.60;;;16.30;36.60;;;;;;5009099;28;20460;-64
2023/08/28 07:07:55;;;;;;;8.10;6.03;;;16.30;36.60;;;;;;5013170;28;21022;-64
2023/08/28 07:10:22;;;;;;;7.47;5.40;;;16.30;36.60;;;;;;5004694;28;20514;-64
2023/08/28 07:12:48;;;;;;;10.53;5.97;;;16.30;36.50;;;;;;5005139;28;20459;-64
2023/08/28 07:15:57;;;;;;;8.23;4.50;;;16.30;36.50;;;;;;5005867;28;20467;-64
2023/08/28 07:18:24;;;;;;;10.40;5.30;;;16.30;37.20;;;;;;5005523;28;20464;-64
2023/08/28 07:20:51;;;;;;;6.57;4.50;;;16.20;36.20;;;;;;5001133;28;20461;-64
2023/08/28 07:23:19;;;;;;;7.80;4.70;;;16.30;36.40;;;;;;5003845;28;20510;-64
2023/08/28 07:25:46;;;;;;;7.70;4.17;;;16.20;36.40;;;;;;5008451;28;20455;-63
2023/08/28 07:28:12;;;;;;;7.87;5.13;;;16.20;36.60;;;;;;5014439;28;20482;-64
2023/08/28 07:30:40;;;;;;;7.77;4.90;;;16.20;36.50;;;;;;5010353;28;20999;-64
2023/08/28 07:33:07;;;;;;;7.80;4.60;;;16.20;36.50;;;;;;5015735;28;20485;-64
2023/08/28 07:35:35;;;;;;;6.90;4.67;;;16.30;36.50;;;;;;5011996;28;20491;-64
2023/08/28 07:38:07;;;;;;;6.60;4.57;;;16.30;36.50;;;;;;5011150;28;20513;-64
2023/08/28 07:40:35;;;;;;;6.30;4.43;;;16.20;36.40;;;;;;5007230;28;20467;-64
2023/08/28 07:43:03;;;;;;;8.47;4.43;;;16.20;36.40;;;;;;5012693;28;20479;-64
2023/08/28 07:45:30;;;;;;;6.53;4.60;;;16.20;36.30;;;;;;5010372;28;20460;-64
2023/08/28 07:47:58;;;;;;;9.60;5.00;;;16.30;36.50;;;;;;5015879;28;20490;-64
2023/08/28 07:50:26;;;;;;;11.40;5.63;;;16.20;36.50;;;;;;5011071;28;20463;-64
2023/08/28 07:52:53;;;;;;;9.30;5.33;;;16.30;36.70;;;;;;5015405;28;20891;-64
2023/08/28 07:55:19;;;;;;;9.47;6.00;;;16.30;36.80;;;;;;5008841;28;20988;-63
2023/08/28 07:57:47;;;;;;;8.40;5.67;;;16.30;36.70;;;;;;5019622;23;21398;-67
2023/08/28 08:00:18;;;;;;;7.27;4.90;;;16.30;36.70;;;;;;4984938;28;20524;-69
2023/08/28 08:02:45;;;;;;;7.90;5.43;;;16.30;36.80;;;;;;4987934;28;20465;-68
2023/08/28 08:05:12;;;;;;;8.37;6.00;;;16.30;36.80;;;;;;4984491;28;20464;-68
2023/08/28 08:07:40;;;;;;;7.50;5.70;;;16.30;36.90;;;;;;4986165;28;21089;-68
2023/08/28 08:10:08;;;;;;;9.30;6.20;;;16.30;37.00;;;;;;4990907;28;20508;-68
2023/08/28 08:12:35;;;;;;;10.37;5.70;;;16.40;37.10;;;;;;4989170;28;20464;-69
2023/08/28 08:15:04;;;;;;;7.00;4.90;;;16.40;37.10;;;;;;4988777;28;20483;-68
2023/08/28 08:17:30;;;;;;;9.53;5.60;;;16.40;37.20;;;;;;4990448;28;20473;-69
2023/08/28 08:19:57;;;;;;;8.00;6.43;;;16.40;37.10;;;;;;4988723;28;20463;-69
2023/08/28 08:22:24;;;;;;;10.53;6.70;;;16.40;37.20;;;;;;4983715;28;20464;-68
2023/08/28 08:24:51;;;;;;;8.57;6.07;;;16.50;37.20;;;;;;4988353;28;20489;-69
2023/08/28 08:27:18;;;;;;;7.87;6.30;;;16.50;37.10;;;;;;4990036;28;20461;-68
2023/08/28 08:29:45;;;;;;;7.50;6.10;;;16.50;37.00;;;;;;4991306;28;20481;-69
2023/08/28 08:32:13;;;;;;;8.50;6.73;;;16.50;36.90;;;;;;4987320;28;20481;-68
2023/08/28 08:34:40;;;;;;;7.60;5.40;;;16.60;36.80;;;;;;4988897;28;21295;-68
2023/08/28 08:37:07;;;;;;;8.17;6.27;;;16.60;36.80;;;;;;4991878;28;20461;-68
2023/08/28 08:39:33;;;;;;;8.30;6.07;;;16.60;36.70;;;;;;4990874;28;20449;-68
2023/08/28 08:42:00;;;;;;;7.70;5.87;;;16.60;36.60;;;;;;4989482;28;20464;-68
2023/08/28 08:44:27;;;;;;;7.93;5.67;;;16.70;36.50;;;;;;4990708;28;20492;-68
2023/08/28 08:46:55;;;;;;;7.80;5.63;;;16.70;37.10;;;;;;4990512;28;20457;-68
2023/08/28 08:49:26;;;;;;;7.37;5.50;;;16.70;36.50;;;;;;4987152;28;20487;-68
2023/08/28 08:52:00;;;;;;;8.80;5.73;;;16.70;36.50;;;;;;4988862;28;21020;-68
2023/08/28 08:54:31;;;;;;;8.97;6.70;;;16.80;36.50;;;;;;4990016;28;21085;-68
2023/08/28 08:57:01;;;;;;;8.43;6.17;;;16.80;36.50;;;;;;4991135;28;20492;-69
2023/08/28 08:59:28;;;;;;;7.07;5.43;;;16.80;36.10;;;;;;4989762;28;20461;-68
2023/08/28 09:01:55;;;;;;;9.20;6.00;;;16.70;35.90;;;;;;4990149;28;21169;-68
2023/08/28 09:04:24;;;;;;;7.70;5.00;;;16.80;35.70;;;;;;4997504;28;20483;-68
2023/08/28 09:06:51;;;;;;;8.30;5.60;;;16.80;35.80;;;;;;4989454;28;20460;-68
2023/08/28 09:09:18;;;;;;;7.80;5.90;;;16.80;35.60;;;;;;4984802;28;20488;-68
2023/08/28 09:11:46;;;;;;;8.83;6.90;;;16.90;35.70;;;;;;4987616;28;21400;-68
2023/08/28 09:14:13;;;;;;;7.13;5.70;;;17.10;35.80;;;;;;4988528;28;20481;-69
2023/08/28 09:16:40;;;;;;;7.93;4.97;;;17.30;35.80;;;;;;4989441;28;20464;-68
2023/08/28 09:19:07;;;;;;;6.43;4.80;;;17.50;35.10;;;;;;4988905;28;21384;-69
2023/08/28 09:21:37;;;;;;;7.20;4.33;;;17.90;34.70;;;;;;4989689;28;20452;-68
2023/08/28 09:24:08;;;;;;;8.33;4.90;;;18.40;33.90;;;;;;4984367;28;20484;-69
2023/08/28 09:26:37;;;;;;;6.37;4.13;;;18.70;33.00;;;;;;4989657;28;20464;-69
2023/08/28 09:29:06;;;;;;;6.40;3.30;;;19.10;32.20;;;;;;4989890;28;20480;-68
2023/08/28 09:31:34;;;;;;;6.60;4.10;;;19.40;30.20;;;;;;4978871;28;20832;-68
2023/08/28 09:34:01;;;;;;;6.37;3.40;;;19.60;29.10;;;;;;4989326;28;20562;-68
2023/08/28 09:36:29;;;;;;;5.47;3.70;;;19.70;28.80;;;;;;4983355;28;20937;-69
2023/08/28 09:39:01;;;;;;;5.10;3.43;;;19.70;27.30;;;;;;4984222;28;20549;-69
2023/08/28 09:41:36;;;;;;;6.00;3.23;;;19.60;27.90;;;;;;4981990;28;20468;-69
2023/08/28 09:44:05;;;;;;;4.67;2.70;;;19.80;27.60;;;;;;4980666;28;20490;-69
2023/08/28 09:46:32;;;;;;;7.60;3.33;;;20.00;26.90;;;;;;4988998;28;20452;-69
2023/08/28 09:48:59;;;;;;;4.60;2.60;;;20.10;25.80;;;;;;4991143;28;20481;-69
2023/08/28 09:51:39;;;;;;;5.10;2.80;;;20.00;25.40;;;;;;4980875;28;20468;-69
2023/08/28 09:54:08;;;;;;;4.73;2.57;;;19.80;25.80;;;;;;4989691;28;20547;-68
2023/08/28 09:56:34;;;;;;;4.63;2.37;;;19.60;25.50;;;;;;4988887;28;20468;-68
2023/08/28 09:59:01;;;;;;;4.67;2.60;;;19.60;26.00;;;;;;4984446;28;20457;-69
2023/08/28 10:01:31;;;;;;;4.67;2.60;;;19.50;26.50;;;;;;4986997;28;20477;-69
2023/08/28 10:03:59;;;;;;;4.43;2.40;;;19.60;26.60;;;;;;4984742;28;21061;-69
2023/08/28 10:06:27;;;;;;;5.60;3.30;;;19.50;26.40;;;;;;4988238;28;20465;-69
2023/08/28 10:08:57;;;;;;;5.37;2.90;;;19.60;26.50;;;;;;4988974;28;20561;-68
2023/08/28 10:11:33;;;;;;;5.60;4.00;;;19.50;26.80;;;;;;4986124;28;20929;-68
2023/08/28 10:14:01;;;;;;;5.57;3.00;;;19.50;27.10;;;;;;4989744;28;20579;-68
2023/08/28 10:16:34;;;;;;;4.60;3.00;;;19.50;26.20;;;;;;4987448;28;20722;-68
2023/08/28 10:19:10;;;;;;;5.10;3.30;;;19.40;26.20;;;;;;4981449;28;20457;-68
2023/08/28 10:21:37;;;;;;;5.47;2.87;;;19.40;26.50;;;;;;4982705;28;20456;-68
2023/08/28 10:24:05;;;;;;;4.77;3.10;;;19.50;26.70;;;;;;4987190;28;20476;-69
2023/08/28 10:26:34;;;;;;;5.30;2.93;;;19.50;25.70;;;;;;4988079;28;20457;-68
2023/08/28 10:29:03;;;;;;;5.10;2.97;;;19.40;25.40;;;;;;4985803;28;20513;-68
2023/08/28 10:31:31;;;;;;;5.50;2.77;;;19.40;25.30;;;;;;4985325;28;20478;-68
2023/08/28 10:33:59;;;;;;;5.20;2.53;;;19.40;25.20;;;;;;4981271;28;20480;-68
2023/08/28 10:36:27;;;;;;;5.97;2.80;;;19.30;25.60;;;;;;4988001;28;20452;-68
2023/08/28 10:38:55;;;;;;;5.43;2.93;;;19.40;25.90;;;;;;4987282;28;20450;-69
2023/08/28 10:41:22;;;;;;;5.07;2.70;;;19.40;25.90;;;;;;4988601;28;20600;-68
2023/08/28 10:43:51;;;;;;;4.33;2.43;;;19.30;25.50;;;;;;4990626;28;20485;-68
2023/08/28 10:46:19;;;;;;;5.50;3.93;;;19.20;25.70;;;;;;4982531;28;21130;-69
2023/08/28 10:48:46;;;;;;;4.40;3.17;;;19.20;26.20;;;;;;4989032;28;20460;-68
2023/08/28 10:51:13;;;;;;;6.60;2.87;;;19.20;26.00;;;;;;4985791;28;20489;-69
2023/08/28 10:53:41;;;;;;;5.50;2.80;;;19.10;26.20;;;;;;4993176;28;20487;-69
2023/08/28 10:56:07;;;;;;;4.50;2.60;;;19.20;26.20;;;;;;4984283;28;20463;-69
2023/08/28 10:58:38;;;;;;;4.50;2.60;;;19.10;26.20;;;;;;4989089;28;20475;-69
2023/08/28 11:01:14;;;;;;;5.60;3.20;;;19.20;25.50;;;;;;4983617;28;20488;-68
2023/08/28 11:03:57;;;;;;;5.37;3.10;;;19.10;25.40;;;;;;4986890;28;20468;-68
2023/08/28 11:06:42;;;;;;;5.93;3.23;;;19.10;25.50;;;;;;4988960;28;20478;-68
2023/08/28 11:09:31;;;;;;;5.40;3.13;;;19.10;25.40;;;;;;4987616;28;21085;-68
2023/08/28 11:12:31;;;;;;;7.70;3.40;;;19.10;25.60;;;;;;4990283;28;20467;-68
2023/08/28 11:14:59;;;;;;;4.50;2.20;;;19.10;25.90;;;;;;4983023;28;20454;-68
2023/08/28 11:17:31;;;;;;;5.00;2.70;;;19.20;25.10;;;;;;4985437;28;20483;-68
2023/08/28 11:20:05;;;;;;;5.40;2.77;;;19.20;25.10;;;;;;4981388;28;20460;-68
2023/08/28 11:22:33;;;;;;;4.37;2.30;;;19.20;24.70;;;;;;4983576;28;20527;-68
2023/08/28 11:25:01;;;;;;;5.60;2.90;;;19.30;24.40;;;;;;4984309;28;20501;-69
2023/08/28 11:27:46;;;;;;;5.17;3.23;;;19.20;24.40;;;;;;4986352;28;20461;-68
2023/08/28 11:30:16;;;;;;;6.43;2.93;;;19.20;24.10;;;;;;4986269;28;20477;-68
2023/08/28 11:32:46;;;;;;;5.07;3.10;;;19.10;24.20;;;;;;4987929;28;20458;-68
2023/08/28 11:35:15;;;;;;;6.20;3.30;;;19.10;24.30;;;;;;4980428;28;20981;-68
2023/08/28 11:37:43;;;;;;;4.20;2.37;;;19.10;24.70;;;;;;4987960;28;20449;-69
2023/08/28 11:40:10;;;;;;;5.37;2.40;;;19.00;24.70;;;;;;4981990;28;20462;-68
2023/08/28 11:42:39;;;;;;;4.53;2.50;;;19.00;24.90;;;;;;4988179;28;20456;-69
2023/08/28 11:45:07;;;;;;;5.17;2.50;;;19.00;25.00;;;;;;4987196;28;20954;-68
2023/08/28 11:47:35;;;;;;;4.83;2.20;;;19.10;25.20;;;;;;4985545;28;20469;-69
2023/08/28 11:50:05;;;;;;;6.23;2.63;;;19.10;24.40;;;;;;4988274;28;20980;-68
2023/08/28 11:52:32;;;;;;;4.63;2.33;;;19.10;23.80;;;;;;4986048;28;20526;-69
2023/08/28 11:55:04;;;;;;;4.50;2.40;;;19.10;23.60;;;;;;4986371;28;20487;-69
2023/08/28 11:57:32;;;;;;;5.90;2.57;;;19.10;24.00;;;;;;4982948;28;20461;-68
2023/08/28 12:00:00;;;;;;;4.90;2.43;;;19.10;24.20;;;;;;4988646;28;20459;-68
2023/08/28 12:02:27;;;;;;;5.00;2.50;;;19.10;23.40;;;;;;4986000;28;20480;-68
2023/08/28 12:04:54;;;;;;;5.53;2.80;;;19.00;23.50;;;;;;4987616;28;20483;-69
2023/08/28 12:07:27;;;;;;;5.20;2.17;;;19.00;24.00;;;;;;4988335;28;20485;-69
2023/08/28 12:09:55;;;;;;;5.20;2.40;;;19.00;24.20;;;;;;4984738;28;20898;-68
2023/08/28 12:12:23;;;;;;;5.47;2.70;;;18.90;24.50;;;;;;4985382;28;20827;-68
2023/08/28 12:14:50;;;;;;;4.40;2.30;;;18.90;23.70;;;;;;4990738;28;20489;-69
2023/08/28 12:17:20;;;;;;;5.30;2.17;;;18.80;23.30;;;;;;4986452;28;20460;-69
2023/08/28 12:19:49;;;;;;;4.47;2.30;;;18.80;22.90;;;;;;4992464;28;21079;-69
2023/08/28 12:22:16;;;;;;;6.00;2.23;;;18.70;23.10;;;;;;4991021;28;20960;-68
2023/08/28 12:24:45;;;;;;;5.63;3.10;;;18.60;23.10;;;;;;4989374;28;20476;-69
2023/08/28 12:27:14;;;;;;;4.90;2.60;;;18.60;23.20;;;;;;4986969;28;20468;-69
2023/08/28 12:29:42;;;;;;;5.53;2.40;;;18.60;23.20;;;;;;4990752;28;20496;-69
2023/08/28 12:32:10;;;;;;;5.57;2.83;;;18.70;23.70;;;;;;4990269;28;20832;-69
2023/08/28 12:34:38;;;;;;;4.87;2.50;;;18.70;23.90;;;;;;4989848;28;20481;-69
2023/08/28 12:37:06;;;;;;;5.00;2.80;;;18.60;23.40;;;;;;4989594;28;20464;-69
2023/08/28 12:39:33;;;;;;;5.27;2.70;;;18.70;23.30;;;;;;4988166;28;20468;-69
2023/08/28 12:42:02;;;;;;;5.17;2.77;;;18.70;23.70;;;;;;4985046;28;20461;-68
2023/08/28 12:44:30;;;;;;;5.83;2.90;;;18.70;24.10;;;;;;4987382;28;20480;-69
2023/08/28 12:46:57;;;;;;;6.13;3.03;;;18.80;24.40;;;;;;4988903;28;20465;-69
2023/08/28 12:49:24;;;;;;;5.00;2.33;;;18.70;23.90;;;;;;4990153;28;20499;-69
2023/08/28 12:51:51;;;;;;;5.80;3.20;;;18.60;23.90;;;;;;4987057;28;20461;-68